Time;durP1;ratioP1;P1;durP2;ratioP2;P2;SDS_P1;SDS_P2;PMS_P1;PMS_P2;Temp;Humidity;BMP_temperature;BMP_pressure;BME280_temperature;BME280_humidity;BME280_pressure;Samples;Min_cycle;Max_cycle;Signal;HPM_P1;HPM_P2
2023/07/01 00:00:08;;;;;;;4.72;2.00;;;;;;;17.52;88.31;100629.88;1056528;28;20040;-40
2023/07/01 00:00:47;;;;;;;;;;;;;;;17.54;86.51;100630.44;1056908;28;20405;-40
2023/07/01 00:01:19;;;;;;;3.72;1.80;;;;;;;17.37;86.75;100623.69;1056262;28;19927;-40
2023/07/01 00:01:51;;;;;;;4.57;1.55;;;;;;;17.25;88.86;100626.59;1056458;28;20039;-39
2023/07/01 00:02:23;;;;;;;8.73;2.15;;;;;;;17.29;89.49;100628.50;1056573;28;20504;-40
2023/07/01 00:02:54;;;;;;;7.68;1.52;;;;;;;17.57;87.42;100619.13;1056473;28;20521;-41
2023/07/01 00:03:30;;;;;;;7.75;2.35;;;;;;;17.59;85.80;100625.06;1056251;28;20085;-40
2023/07/01 00:04:02;;;;;;;5.97;2.97;;;;;;;17.52;85.73;100627.19;1056127;28;20504;-41
2023/07/01 00:04:33;;;;;;;2.63;1.48;;;;;;;17.68;84.40;100624.56;1056351;28;20485;-39
2023/07/01 00:05:07;;;;;;;4.28;1.58;;;;;;;17.53;84.51;100620.75;1056751;28;20066;-41
2023/07/01 00:05:39;;;;;;;6.88;2.00;;;;;;;17.75;83.72;100611.63;1056307;28;20461;-39
2023/07/01 00:06:12;;;;;;;2.13;1.60;;;;;;;17.79;83.24;100615.38;1056397;28;20039;-40
2023/07/01 00:06:43;;;;;;;5.88;2.15;;;;;;;17.73;83.29;100611.09;1056446;28;20047;-39
2023/07/01 00:07:15;;;;;;;4.53;2.08;;;;;;;17.71;83.25;100610.53;1056663;28;20396;-39
2023/07/01 00:07:47;;;;;;;6.53;2.10;;;;;;;17.77;83.36;100604.88;1056266;28;20487;-40
2023/07/01 00:08:18;;;;;;;5.25;2.17;;;;;;;17.69;83.46;100605.44;1056318;28;20126;-40
2023/07/01 00:08:50;;;;;;;5.57;1.90;;;;;;;17.66;83.35;100608.63;1056738;28;20054;-39
2023/07/01 00:09:23;;;;;;;4.63;2.80;;;;;;;17.79;82.45;100604.59;1056033;28;20236;-39
2023/07/01 00:09:55;;;;;;;5.35;1.95;;;;;;;17.67;83.10;100601.34;1056052;28;20089;-39
2023/07/01 00:10:27;;;;;;;4.72;1.77;;;;;;;17.69;82.61;100604.63;1056897;28;20416;-40
2023/07/01 00:11:00;;;;;;;8.70;2.90;;;;;;;17.75;82.51;100603.53;1056272;28;20393;-41
2023/07/01 00:11:31;;;;;;;6.90;1.98;;;;;;;17.74;81.97;100601.91;1055949;28;20124;-39
2023/07/01 00:12:03;;;;;;;6.53;2.80;;;;;;;17.53;83.43;100601.06;1056652;28;20050;-40
2023/07/01 00:12:35;;;;;;;5.28;1.80;;;;;;;17.54;84.95;100606.22;1056426;27;20043;-40
2023/07/01 00:13:07;;;;;;;8.57;2.05;;;;;;;17.48;82.64;100598.38;1055266;28;20128;-40
2023/07/01 00:13:38;;;;;;;9.52;2.45;;;;;;;17.40;83.19;100597.03;1056453;28;20040;-40
2023/07/01 00:14:10;;;;;;;6.13;2.47;;;;;;;17.42;80.85;100597.56;1056543;28;20124;-39
2023/07/01 00:14:42;;;;;;;5.50;2.60;;;;;;;17.49;80.13;100595.41;1056847;27;20043;-39
2023/07/01 00:15:13;;;;;;;11.13;2.67;;;;;;;17.48;80.19;100593.78;1058582;27;20035;-42
2023/07/01 00:15:45;;;;;;;5.10;2.08;;;;;;;17.50;81.00;100594.31;1053962;28;20047;-39
2023/07/01 00:16:17;;;;;;;4.07;2.17;;;;;;;17.53;81.27;100591.13;1056385;27;20075;-40
2023/07/01 00:16:48;;;;;;;53.50;6.03;;;;;;;17.43;80.59;100591.09;1056666;28;20085;-41
2023/07/01 00:17:20;;;;;;;6.65;1.88;;;;;;;17.60;80.14;100588.16;1055950;28;20047;-39
2023/07/01 00:17:54;;;;;;;4.03;1.42;;;;;;;17.47;78.75;100592.19;1056032;28;20044;-39
2023/07/01 00:18:26;;;;;;;4.03;1.60;;;;;;;17.50;78.09;100580.88;1056136;28;20099;-39
2023/07/01 00:18:58;;;;;;;7.57;1.98;;;;;;;17.59;76.80;100579.28;1056325;28;20058;-39
2023/07/01 00:19:30;;;;;;;8.27;2.05;;;;;;;17.65;77.17;100573.88;1056427;28;20405;-40
2023/07/01 00:20:02;;;;;;;8.40;1.88;;;;;;;17.60;76.29;100580.09;1056416;28;20051;-39
2023/07/01 00:20:34;;;;;;;3.67;2.22;;;;;;;17.55;76.92;100583.59;1057081;28;20057;-39
2023/07/01 00:21:06;;;;;;;6.03;2.15;;;;;;;17.56;77.89;100584.41;1056307;28;20044;-40
2023/07/01 00:21:37;;;;;;;7.57;1.77;;;;;;;17.59;76.40;100578.47;1057509;28;20047;-46
2023/07/01 00:22:09;;;;;;;4.68;3.45;;;;;;;17.71;75.61;100576.31;1056572;27;20066;-49
2023/07/01 00:22:41;;;;;;;16.77;2.40;;;;;;;17.72;75.22;100572.56;1055684;28;20035;-50
2023/07/01 00:23:12;;;;;;;5.65;2.30;;;;;;;17.71;75.10;100572.81;1056401;28;20520;-48
2023/07/01 00:23:44;;;;;;;11.32;3.83;;;;;;;17.76;74.55;100567.44;1056558;28;20409;-47
2023/07/01 00:24:15;;;;;;;5.70;1.85;;;;;;;17.74;75.17;100581.19;1056321;28;20040;-45
2023/07/01 00:24:47;;;;;;;4.60;2.00;;;;;;;17.69;75.13;100583.88;1056566;28;21602;-47
2023/07/01 00:25:19;;;;;;;5.55;1.73;;;;;;;17.67;74.81;100577.13;1056205;28;20124;-48
2023/07/01 00:25:50;;;;;;;6.03;1.83;;;;;;;17.78;74.73;100576.06;1056380;28;20049;-45
2023/07/01 00:26:22;;;;;;;6.40;1.88;;;;;;;17.75;74.15;100568.50;1056538;28;20036;-46
2023/07/01 00:26:54;;;;;;;14.18;2.97;;;;;;;17.81;73.49;100567.47;1056173;28;20044;-46
2023/07/01 00:27:25;;;;;;;4.07;2.10;;;;;;;17.79;74.04;100572.28;1051615;28;20052;-48
2023/07/01 00:27:57;;;;;;;5.32;1.83;;;;;;;17.82;73.10;100571.75;1047813;28;20064;-45
2023/07/01 00:28:28;;;;;;;7.32;2.03;;;;;;;17.79;74.19;100572.28;1045708;28;20049;-50
2023/07/01 00:29:00;;;;;;;5.82;1.92;;;;;;;17.84;73.43;100561.53;1052147;28;20150;-46
2023/07/01 00:29:32;;;;;;;3.33;1.98;;;;;;;17.85;73.28;100565.84;1052412;28;20535;-46
2023/07/01 00:30:04;;;;;;;3.10;1.73;;;;;;;17.86;72.95;100570.13;1053573;28;20032;-51
2023/07/01 00:30:35;;;;;;;1.83;1.20;;;;;;;17.84;73.04;100564.22;1047599;28;20127;-47
2023/07/01 00:31:07;;;;;;;2.60;1.83;;;;;;;17.92;72.52;100566.34;1043208;28;20052;-47
2023/07/01 00:31:39;;;;;;;4.40;1.90;;;;;;;17.92;72.02;100560.97;1044184;28;20518;-48
2023/07/01 00:32:11;;;;;;;9.20;2.13;;;;;;;17.92;72.28;100560.97;1048691;28;20070;-45
2023/07/01 00:32:43;;;;;;;2.78;1.83;;;;;;;17.91;71.96;100559.34;1052199;28;20048;-45
2023/07/01 00:33:15;;;;;;;3.92;1.98;;;;;;;17.92;71.92;100556.38;1056166;28;20054;-46
2023/07/01 00:33:46;;;;;;;6.00;1.90;;;;;;;17.88;71.80;100554.50;1051436;28;20040;-45
2023/07/01 00:34:19;;;;;;;3.25;1.40;;;;;;;17.93;71.38;100562.59;1048169;28;20135;-46
2023/07/01 00:34:51;;;;;;;6.40;2.00;;;;;;;17.88;71.04;100558.00;1051855;28;20040;-46
2023/07/01 00:35:23;;;;;;;8.25;2.17;;;;;;;17.89;71.20;100558.81;1052355;28;20414;-46
2023/07/01 00:35:54;;;;;;;5.55;1.90;;;;;;;17.80;70.99;100558.53;1056137;28;20043;-45
2023/07/01 00:36:26;;;;;;;4.72;1.63;;;;;;;17.82;71.33;100561.78;1056456;28;20048;-46
2023/07/01 00:36:58;;;;;;;2.30;1.40;;;;;;;17.92;70.46;100556.38;1056128;28;20031;-47
2023/07/01 00:37:30;;;;;;;5.50;1.77;;;;;;;17.84;71.56;100558.81;1055874;28;20409;-45
2023/07/01 00:38:03;;;;;;;2.88;1.45;;;;;;;17.84;71.17;100551.56;1051949;28;20032;-49
2023/07/01 00:38:35;;;;;;;2.13;1.60;;;;;;;17.89;70.52;100556.13;1051906;28;20126;-45
2023/07/01 00:39:06;;;;;;;4.18;2.33;;;;;;;17.94;70.08;100552.59;1057685;27;20575;-51
2023/07/01 00:39:38;;;;;;;11.35;1.75;;;;;;;17.96;69.83;100553.94;1060722;27;20566;-46
2023/07/01 00:40:10;;;;;;;3.72;1.65;;;;;;;17.91;69.81;100551.25;1060710;27;20039;-45
2023/07/01 00:40:42;;;;;;;4.55;1.95;;;;;;;17.93;70.72;100541.03;1059680;27;20043;-45
2023/07/01 00:41:17;;;;;;;2.65;1.63;;;;;;;17.95;69.90;100546.13;1051338;28;20047;-48
2023/07/01 00:41:53;;;;;;;5.80;1.60;;;;;;;17.94;68.90;100545.34;1053245;28;20105;-45
2023/07/01 00:42:24;;;;;;;3.28;1.83;;;;;;;17.94;69.03;100550.72;1055947;28;20039;-47
2023/07/01 00:42:56;;;;;;;10.57;2.15;;;;;;;17.97;68.06;100541.28;1056022;28;20538;-49
2023/07/01 00:43:28;;;;;;;4.68;1.73;;;;;;;17.94;67.92;100539.94;1056361;28;20047;-47
2023/07/01 00:43:59;;;;;;;2.85;1.48;;;;;;;17.95;67.90;100538.84;1056483;28;20092;-47
2023/07/01 00:44:31;;;;;;;4.53;1.80;;;;;;;17.97;67.52;100541.28;1056264;28;20122;-51
2023/07/01 00:45:04;;;;;;;5.13;1.80;;;;;;;17.96;67.18;100529.69;1056457;28;20047;-49
2023/07/01 00:45:36;;;;;;;5.95;2.10;;;;;;;17.90;68.72;100541.56;1056633;28;20084;-46
2023/07/01 00:46:08;;;;;;;5.13;1.92;;;;;;;17.94;69.08;100533.75;1056911;28;20051;-39
2023/07/01 00:46:39;;;;;;;2.35;1.98;;;;;;;18.00;67.66;100533.44;1056203;28;20043;-39
2023/07/01 00:47:12;;;;;;;11.90;1.95;;;;;;;17.98;67.46;100527.53;1056048;28;20405;-40
2023/07/01 00:47:44;;;;;;;9.60;2.00;;;;;;;17.99;67.97;100523.75;1051529;28;20066;-40
2023/07/01 00:48:23;;;;;;;13.88;2.28;;;;;;;18.01;67.42;100526.97;1047657;28;21309;-39
2023/07/01 00:48:56;;;;;;;5.93;2.20;;;;;;;17.94;67.70;100526.47;1047317;28;20113;-40
2023/07/01 00:49:27;;;;;;;7.47;2.05;;;;;;;18.01;67.02;100518.09;1045342;28;20250;-39
2023/07/01 00:49:59;;;;;;;2.33;1.70;;;;;;;17.99;66.69;100523.75;1048940;28;20048;-39
2023/07/01 00:50:31;;;;;;;2.13;1.80;;;;;;;18.02;66.99;100520.50;1051849;28;20184;-39
2023/07/01 00:51:03;;;;;;;7.78;2.35;;;;;;;18.02;66.27;100512.44;1056006;28;20039;-39
2023/07/01 00:51:34;;;;;;;3.60;1.55;;;;;;;18.00;66.22;100516.47;1055774;28;20405;-40
2023/07/01 00:52:06;;;;;;;5.07;2.30;;;;;;;18.01;66.18;100518.09;1056067;28;20035;-39
2023/07/01 00:52:39;;;;;;;8.20;1.52;;;;;;;18.05;65.66;100517.25;1056101;28;20039;-39
2023/07/01 00:53:10;;;;;;;1.88;1.33;;;;;;;18.03;65.48;100513.22;1055579;28;20039;-40
2023/07/01 00:53:42;;;;;;;6.35;1.67;;;;;;;18.04;65.95;100510.25;1055593;28;20036;-39
2023/07/01 00:54:14;;;;;;;3.58;1.80;;;;;;;18.09;66.00;100510.28;1051745;28;20036;-39
2023/07/01 00:54:45;;;;;;;3.95;1.90;;;;;;;17.99;64.87;100507.59;1047113;28;20039;-40
2023/07/01 00:55:17;;;;;;;7.97;1.50;;;;;;;17.99;65.97;100514.88;1047490;28;20036;-41
2023/07/01 00:55:49;;;;;;;5.80;2.65;;;;;;;18.01;66.23;100504.63;1048718;28;20075;-40
2023/07/01 00:56:21;;;;;;;4.95;2.15;;;;;;;18.00;66.03;100503.00;1049345;28;20514;-39
2023/07/01 00:56:55;;;;;;;6.95;2.05;;;;;;;17.98;65.59;100500.59;1055810;28;20044;-39
2023/07/01 00:57:27;;;;;;;6.07;3.25;;;;;;;17.93;66.68;100508.69;1055761;28;20134;-40
2023/07/01 00:57:58;;;;;;;2.33;1.30;;;;;;;18.02;65.47;100503.53;1055812;28;20050;-40
2023/07/01 00:58:30;;;;;;;4.30;1.90;;;;;;;18.01;64.86;100491.13;1056227;28;20128;-39
2023/07/01 00:59:01;;;;;;;2.33;1.38;;;;;;;18.01;64.58;100491.94;1056287;28;20039;-39
2023/07/01 00:59:33;;;;;;;3.60;1.67;;;;;;;18.00;64.67;100494.91;1055740;28;20489;-39
2023/07/01 01:00:10;;;;;;;4.65;1.92;;;;;;;18.07;65.04;100493.53;1056036;28;20039;-39
2023/07/01 01:00:43;;;;;;;4.50;1.50;;;;;;;17.98;64.91;100492.50;1055949;28;20489;-40
2023/07/01 01:01:21;;;;;;;4.40;1.70;;;;;;;18.01;64.76;100494.63;1055920;28;20043;-39
2023/07/01 01:01:55;;;;;;;3.22;1.83;;;;;;;18.05;64.99;100495.69;1055596;28;20035;-40
2023/07/01 01:02:30;;;;;;;4.55;1.60;;;;;;;18.04;65.42;100499.47;1051769;28;20058;-39
2023/07/01 01:03:21;;;;;;;6.20;1.92;;;;;;;18.02;64.81;100496.25;1052131;28;20043;-39
2023/07/01 01:04:16;;;;;;;6.45;2.00;;;;;;;18.05;64.86;100489.50;1055624;28;20047;-39
2023/07/01 01:05:02;;;;;;;4.63;1.60;;;;;;;18.05;64.21;100498.41;1055882;28;20128;-39
2023/07/01 01:05:45;;;;;;;5.35;1.55;;;;;;;17.98;64.46;100495.19;1056633;28;20439;-39
2023/07/01 01:06:25;;;;;;;5.53;1.40;;;;;;;17.95;64.43;100487.66;1055994;28;20039;-39
2023/07/01 01:07:05;;;;;;;6.40;2.17;;;;;;;18.00;64.20;100490.34;1056313;28;20477;-40
2023/07/01 01:07:59;;;;;;;3.55;1.73;;;;;;;18.06;64.25;100485.72;1056371;28;20043;-40
2023/07/01 01:08:39;;;;;;;2.00;1.30;;;;;;;18.01;64.16;100486.56;1056276;28;20047;-39
2023/07/01 01:09:30;;;;;;;4.38;2.00;;;;;;;18.05;64.27;100484.91;1051725;28;20039;-40
2023/07/01 01:10:09;;;;;;;3.30;2.63;;;;;;;17.96;65.44;100494.66;1052186;28;20047;-40
2023/07/01 01:10:44;;;;;;;5.03;1.48;;;;;;;18.00;66.22;100489.53;1047900;28;20118;-40
2023/07/01 01:11:16;;;;;;;5.07;2.10;;;;;;;18.05;65.02;100494.91;1060262;27;20039;-40
2023/07/01 01:11:48;;;;;;;1.88;1.38;;;;;;;17.90;65.70;100487.69;1051380;28;20036;-39
2023/07/01 01:12:21;;;;;;;3.40;1.38;;;;;;;17.99;65.45;100490.59;1052489;28;20088;-40
2023/07/01 01:12:55;;;;;;;3.35;2.13;;;;;;;18.00;65.28;100479.56;1055341;28;20047;-40
2023/07/01 01:13:28;;;;;;;9.02;1.90;;;;;;;17.97;65.10;100477.41;1052713;28;20082;-40
2023/07/01 01:14:04;;;;;;;4.43;1.52;;;;;;;17.85;66.03;100487.69;1056023;28;20051;-39
2023/07/01 01:14:37;;;;;;;4.20;2.45;;;;;;;17.95;66.50;100484.97;1056020;28;20521;-40
2023/07/01 01:15:10;;;;;;;2.55;2.30;;;;;;;17.99;65.40;100482.53;1051880;28;20048;-39
2023/07/01 01:15:42;;;;;;;5.25;2.03;;;;;;;18.00;65.03;100476.06;1049382;28;20044;-39
2023/07/01 01:16:14;;;;;;;2.90;1.77;;;;;;;18.05;64.41;100479.53;1051790;28;20522;-39
2023/07/01 01:16:47;;;;;;;4.55;1.50;;;;;;;18.10;64.61;100476.03;1052411;28;20138;-40
2023/07/01 01:17:20;;;;;;;7.05;1.48;;;;;;;18.06;65.22;100478.44;1052577;28;20177;-39
2023/07/01 01:17:52;;;;;;;4.38;2.00;;;;;;;18.08;64.84;100473.63;1056079;28;20172;-39
2023/07/01 01:18:28;;;;;;;4.40;1.98;;;;;;;18.08;64.17;100468.22;1047228;28;20434;-39
2023/07/01 01:19:00;;;;;;;2.65;1.70;;;;;;;18.07;64.48;100466.59;1044804;28;20036;-39
2023/07/01 01:19:40;;;;;;;5.82;1.60;;;;;;;18.01;65.64;100475.78;1043654;28;20053;-40
2023/07/01 01:20:13;;;;;;;7.10;1.98;;;;;;;18.03;66.07;100465.53;1035144;28;20038;-40
2023/07/01 01:20:47;;;;;;;2.80;1.38;;;;;;;18.03;64.79;100470.09;1037244;28;20132;-39
2023/07/01 01:21:20;;;;;;;2.90;1.33;;;;;;;18.09;64.74;100467.16;1043441;28;20041;-39
2023/07/01 01:22:14;;;;;;;3.47;1.73;;;;;;;18.05;65.40;100471.44;1050084;28;20041;-40
2023/07/01 01:22:55;;;;;;;2.88;1.83;;;;;;;18.03;64.60;100470.91;1055663;28;20181;-39
2023/07/01 01:23:38;;;;;;;2.95;1.77;;;;;;;18.11;65.03;100466.88;1056046;28;20048;-39
2023/07/01 01:24:10;;;;;;;3.13;1.65;;;;;;;18.07;64.72;100471.16;1051999;28;20036;-39
2023/07/01 01:24:46;;;;;;;4.00;2.03;;;;;;;18.11;64.83;100467.69;1050838;28;20326;-39
2023/07/01 01:25:24;;;;;;;2.88;1.85;;;;;;;17.95;64.93;100468.78;1047987;28;20048;-40
2023/07/01 01:26:20;;;;;;;9.50;3.08;;;;;;;18.04;65.00;100472.53;1050679;28;20040;-39
2023/07/01 01:26:54;;;;;;;2.25;1.60;;;;;;;18.01;65.45;100464.19;1053161;28;20067;-39
2023/07/01 01:27:34;;;;;;;2.17;1.48;;;;;;;18.02;65.83;100466.59;1052688;28;20036;-39
2023/07/01 01:28:05;;;;;;;2.83;2.00;;;;;;;17.94;65.87;100467.19;1052644;28;20132;-40
2023/07/01 01:28:37;;;;;;;2.95;1.17;;;;;;;18.02;65.58;100468.50;1050492;28;20130;-39
2023/07/01 01:29:10;;;;;;;4.25;1.60;;;;;;;18.06;65.65;100464.97;1052061;28;20036;-39
2023/07/01 01:29:41;;;;;;;7.50;2.78;;;;;;;17.91;67.29;100462.34;1052771;28;20586;-40
2023/07/01 01:30:14;;;;;;;11.18;2.63;;;;;;;17.92;66.43;100461.25;1049191;28;20418;-39
2023/07/01 01:30:45;;;;;;;1.52;1.35;;;;;;;17.93;66.56;100468.25;1053395;28;20048;-39
2023/07/01 01:31:19;;;;;;;4.03;1.98;;;;;;;17.97;65.77;100463.94;1052250;28;20043;-39
2023/07/01 01:31:51;;;;;;;2.80;1.33;;;;;;;18.05;65.55;100463.34;1053763;28;20121;-40
2023/07/01 01:32:23;;;;;;;2.80;1.50;;;;;;;18.05;65.99;100460.66;1050115;28;20040;-40
2023/07/01 01:32:55;;;;;;;1.55;1.45;;;;;;;18.03;65.22;100460.13;1049238;28;20521;-39
2023/07/01 01:33:27;;;;;;;2.75;2.30;;;;;;;18.00;65.03;100452.59;1052237;28;20048;-39
2023/07/01 01:33:58;;;;;;;4.10;1.80;;;;;;;18.04;65.60;100450.97;1053391;28;20044;-39
2023/07/01 01:34:30;;;;;;;4.32;1.63;;;;;;;17.97;65.20;100446.97;1052891;28;20480;-40
2023/07/01 01:35:02;;;;;;;6.25;2.15;;;;;;;17.95;65.01;100452.63;1056955;28;20039;-40
2023/07/01 01:35:34;;;;;;;6.13;2.95;;;;;;;17.97;64.51;100445.06;1056695;28;20051;-39
2023/07/01 01:36:11;;;;;;;2.92;1.63;;;;;;;17.73;65.86;100447.56;1056926;28;20039;-39
2023/07/01 01:36:52;;;;;;;3.22;1.95;;;;;;;17.97;65.92;100450.47;1057020;28;20197;-39
2023/07/01 01:37:29;;;;;;;4.95;1.98;;;;;;;17.90;65.65;100445.38;1056785;28;20040;-39
2023/07/01 01:38:22;;;;;;;4.68;1.50;;;;;;;17.90;65.93;100449.94;1048181;28;20036;-39
2023/07/01 01:38:58;;;;;;;3.70;1.42;;;;;;;17.96;65.10;100442.66;1044587;28;20048;-39
2023/07/01 01:39:32;;;;;;;4.03;1.80;;;;;;;17.94;65.04;100442.94;1047240;28;20111;-39
2023/07/01 01:40:11;;;;;;;2.88;1.73;;;;;;;17.92;65.17;100442.41;1053024;28;20043;-40
2023/07/01 01:40:53;;;;;;;7.43;2.05;;;;;;;18.01;65.10;100443.44;1050697;28;20423;-39
2023/07/01 01:41:25;;;;;;;;;;;;;;;17.99;64.88;100442.09;1047870;28;20118;-39
2023/07/01 01:42:05;;;;;;;1.83;1.58;;;;;;;17.92;64.84;100442.41;1049505;28;19924;-40
2023/07/01 01:42:40;;;;;;;3.25;1.92;;;;;;;17.94;65.73;100440.22;1050938;28;20130;-39
2023/07/01 01:43:26;;;;;;;1.63;1.08;;;;;;;17.96;65.19;100437.25;1050892;28;20837;-39
2023/07/01 01:44:02;;;;;;;8.48;1.90;;;;;;;17.96;64.97;100437.25;1056432;28;20047;-39
2023/07/01 01:44:37;;;;;;;6.28;1.70;;;;;;;17.99;64.65;100439.41;1048417;28;20390;-39
2023/07/01 01:45:09;;;;;;;5.22;1.45;;;;;;;17.94;65.79;100440.22;1052206;28;20130;-39
2023/07/01 01:45:42;;;;;;;5.32;3.00;;;;;;;18.01;65.37;100440.75;1048519;28;20123;-39
2023/07/01 01:46:15;;;;;;;5.22;1.75;;;;;;;17.91;64.91;100432.69;1049449;28;20037;-39
2023/07/01 01:46:47;;;;;;;4.53;1.55;;;;;;;17.92;64.69;100434.31;1049040;28;20032;-40
2023/07/01 01:47:21;;;;;;;5.50;3.03;;;;;;;17.97;64.94;100433.47;1053723;28;20088;-39
2023/07/01 01:47:53;;;;;;;3.33;1.73;;;;;;;18.00;64.61;100428.34;1057059;28;20054;-40
2023/07/01 01:48:25;;;;;;;8.80;2.65;;;;;;;18.02;64.67;100430.75;1057829;27;20043;-39
2023/07/01 01:49:01;;;;;;;4.28;3.08;;;;;;;17.99;64.51;100437.50;1056614;28;20421;-41
2023/07/01 01:49:34;;;;;;;2.08;1.58;;;;;;;18.03;64.89;100427.78;1057023;28;20051;-39
2023/07/01 01:50:08;;;;;;;3.83;1.42;;;;;;;18.05;64.68;100420.22;1056853;28;20032;-39
2023/07/01 01:50:40;;;;;;;3.75;1.75;;;;;;;18.04;65.13;100429.41;1054283;28;20105;-39
2023/07/01 01:51:13;;;;;;;6.63;1.70;;;;;;;18.02;65.86;100431.56;1053163;28;20042;-39
2023/07/01 01:51:45;;;;;;;6.13;1.60;;;;;;;18.03;65.88;100432.38;1056856;28;20043;-39
2023/07/01 01:52:18;;;;;;;3.58;1.58;;;;;;;17.95;66.12;100424.88;1057995;27;20050;-42
2023/07/01 01:52:50;;;;;;;3.95;1.38;;;;;;;17.94;66.92;100440.22;1057764;28;20042;-48
2023/07/01 01:53:24;;;;;;;3.45;1.85;;;;;;;17.94;65.49;100423.25;1056794;28;20568;-45
2023/07/01 01:53:56;;;;;;;1.70;1.60;;;;;;;17.97;64.75;100423.50;1049410;28;20041;-45
2023/07/01 01:54:28;;;;;;;2.20;1.52;;;;;;;17.96;65.35;100421.09;1048381;28;20052;-45
2023/07/01 01:55:01;;;;;;;3.08;1.55;;;;;;;17.99;65.63;100425.94;1048429;28;20048;-50
2023/07/01 01:55:33;;;;;;;2.08;1.52;;;;;;;17.90;65.80;100414.91;1044939;28;20131;-45
2023/07/01 01:56:05;;;;;;;6.78;1.45;;;;;;;17.91;65.45;100421.91;1047975;28;20040;-50
2023/07/01 01:56:37;;;;;;;6.90;2.05;;;;;;;17.97;65.08;100418.13;1048378;28;20410;-45
2023/07/01 01:57:09;;;;;;;4.32;1.85;;;;;;;17.85;65.64;100414.94;1048414;28;20083;-48
2023/07/01 01:57:41;;;;;;;2.33;1.58;;;;;;;17.91;65.75;100419.22;1047706;28;20037;-48
2023/07/01 01:58:12;;;;;;;1.70;1.30;;;;;;;17.92;65.72;100418.16;1041946;28;20103;-39
2023/07/01 01:58:47;;;;;;;2.67;1.48;;;;;;;17.97;65.10;100418.13;1050038;28;20131;-47
2023/07/01 01:59:19;;;;;;;2.55;1.25;;;;;;;17.99;65.24;100409.75;1052738;28;20082;-45
2023/07/01 01:59:51;;;;;;;5.32;2.67;;;;;;;17.99;65.29;100409.75;1053159;28;20490;-45
2023/07/01 02:00:23;;;;;;;4.70;1.67;;;;;;;17.93;65.35;100411.66;1056520;28;20934;-47
2023/07/01 02:00:55;;;;;;;2.60;1.52;;;;;;;17.94;65.09;100415.97;1057015;28;20046;-46
2023/07/01 02:01:28;;;;;;;2.65;1.98;;;;;;;17.97;64.74;100411.91;1056524;28;20039;-46
2023/07/01 02:02:00;;;;;;;1.85;1.42;;;;;;;17.96;65.17;100403.03;1056439;28;20656;-45
2023/07/01 02:02:32;;;;;;;5.28;1.73;;;;;;;17.92;65.76;100416.25;1057910;28;20047;-47
2023/07/01 02:03:04;;;;;;;2.95;2.22;;;;;;;17.88;65.99;100409.81;1057558;28;20039;-40
2023/07/01 02:03:36;;;;;;;7.32;1.90;;;;;;;17.89;65.08;100405.22;1056355;28;20064;-39
2023/07/01 02:04:08;;;;;;;4.97;1.95;;;;;;;17.91;65.89;100406.56;1056266;28;20068;-39
2023/07/01 02:04:40;;;;;;;2.53;1.45;;;;;;;17.94;65.90;100410.59;1056321;28;20401;-39
2023/07/01 02:05:12;;;;;;;3.92;1.30;;;;;;;17.94;66.05;100402.50;1056332;28;20081;-39
2023/07/01 02:05:44;;;;;;;4.55;1.08;;;;;;;17.96;65.28;100405.72;1056902;28;20185;-39
2023/07/01 02:06:15;;;;;;;2.42;1.55;;;;;;;17.97;65.55;100404.66;1051905;28;20040;-40
2023/07/01 02:06:47;;;;;;;7.18;2.50;;;;;;;17.97;64.98;100407.34;1056682;28;20156;-39
2023/07/01 02:07:19;;;;;;;3.50;1.70;;;;;;;17.98;64.45;100400.88;1057284;27;20062;-39
2023/07/01 02:07:50;;;;;;;4.28;2.10;;;;;;;18.03;64.94;100400.84;1060702;27;20046;-39
2023/07/01 02:08:22;;;;;;;4.45;2.20;;;;;;;17.95;66.04;100406.81;1061288;27;20046;-39
2023/07/01 02:08:54;;;;;;;6.05;2.15;;;;;;;17.93;66.17;100400.88;1060960;27;20520;-40
2023/07/01 02:09:25;;;;;;;4.50;2.10;;;;;;;17.94;65.62;100399.81;1061047;27;20105;-39
2023/07/01 02:09:57;;;;;;;1.77;1.60;;;;;;;17.88;65.74;100404.41;1060986;27;20035;-39
2023/07/01 02:10:28;;;;;;;8.32;2.10;;;;;;;17.94;65.88;100407.91;1060968;27;20069;-39
2023/07/01 02:11:00;;;;;;;4.60;1.55;;;;;;;17.96;65.37;100408.41;1060897;27;20121;-39
2023/07/01 02:11:32;;;;;;;1.40;0.98;;;;;;;18.00;65.23;100396.00;1056482;28;20169;-39
2023/07/01 02:12:04;;;;;;;5.63;1.50;;;;;;;17.98;64.54;100411.66;1056876;27;20616;-39
2023/07/01 02:12:36;;;;;;;5.32;1.73;;;;;;;17.97;65.22;100407.34;1060806;27;20047;-39
2023/07/01 02:13:08;;;;;;;4.15;1.52;;;;;;;18.01;65.18;100408.41;1061204;27;20492;-39
2023/07/01 02:13:40;;;;;;;4.53;1.70;;;;;;;17.96;65.59;100408.41;1058740;27;20055;-39
2023/07/01 02:14:12;;;;;;;3.08;1.33;;;;;;;17.94;66.34;100407.09;1052557;28;20032;-40
2023/07/01 02:14:43;;;;;;;5.63;1.85;;;;;;;17.96;65.24;100400.34;1048098;28;20040;-39
2023/07/01 02:15:15;;;;;;;3.67;1.50;;;;;;;17.92;65.56;100410.88;1044629;28;20127;-39
2023/07/01 02:15:47;;;;;;;2.63;1.80;;;;;;;17.96;65.12;100400.34;1048743;28;20040;-39
2023/07/01 02:16:19;;;;;;;3.78;1.30;;;;;;;17.97;65.06;100401.16;1052350;28;20402;-39
2023/07/01 02:16:52;;;;;;;12.48;2.17;;;;;;;17.94;66.33;100418.66;1048442;28;20133;-39
2023/07/01 02:17:25;;;;;;;3.55;1.50;;;;;;;17.94;67.05;100402.50;1052378;28;20571;-40
2023/07/01 02:17:56;;;;;;;5.20;1.67;;;;;;;17.89;66.60;100394.44;1052585;28;20101;-39
2023/07/01 02:18:29;;;;;;;39.92;4.18;;;;;;;17.83;67.16;100409.03;1052382;28;20065;-40
2023/07/01 02:19:00;;;;;;;9.95;2.78;;;;;;;17.82;67.35;100402.03;1052828;28;20337;-39
2023/07/01 02:19:32;;;;;;;14.40;1.70;;;;;;;17.82;67.40;100399.31;1056985;28;20047;-40
2023/07/01 02:20:05;;;;;;;9.60;1.60;;;;;;;17.71;68.40;100413.91;1056437;28;20093;-39
2023/07/01 02:20:36;;;;;;;21.30;3.50;;;;;;;17.82;68.04;100410.09;1057091;28;20405;-40
2023/07/01 02:21:08;;;;;;;11.70;2.05;;;;;;;17.82;67.83;100404.72;1056728;28;20134;-39
2023/07/01 02:21:40;;;;;;;8.43;2.28;;;;;;;17.79;68.47;100413.31;1051941;28;20406;-38
2023/07/01 02:22:11;;;;;;;3.22;1.60;;;;;;;17.75;68.50;100404.97;1052034;28;20418;-39
2023/07/01 02:22:43;;;;;;;6.50;1.65;;;;;;;17.81;68.44;100403.91;1053016;28;20044;-39
2023/07/01 02:23:15;;;;;;;8.20;2.00;;;;;;;17.87;68.29;100405.50;1056514;28;20048;-39
2023/07/01 02:23:46;;;;;;;10.75;1.95;;;;;;;17.86;68.68;100403.09;1057074;28;20043;-39
2023/07/01 02:24:18;;;;;;;5.30;1.98;;;;;;;17.83;68.17;100398.25;1057255;28;20122;-39
2023/07/01 02:24:51;;;;;;;13.35;2.10;;;;;;;17.73;68.83;100401.75;1056978;28;20049;-39
2023/07/01 02:25:23;;;;;;;13.65;2.22;;;;;;;17.82;68.98;100399.31;1057022;28;20053;-39
2023/07/01 02:25:54;;;;;;;4.70;1.45;;;;;;;17.85;69.05;100404.16;1056847;28;20092;-39
2023/07/01 02:26:26;;;;;;;4.25;2.22;;;;;;;17.79;69.35;100395.28;1057133;28;20131;-39
2023/07/01 02:26:59;;;;;;;9.52;2.42;;;;;;;17.86;68.93;100406.59;1057055;28;20339;-39
2023/07/01 02:27:31;;;;;;;4.40;1.67;;;;;;;17.86;68.71;100397.69;1056817;28;20035;-39
2023/07/01 02:28:02;;;;;;;6.20;1.70;;;;;;;17.87;68.27;100394.72;1056802;28;20043;-39
2023/07/01 02:28:34;;;;;;;7.65;1.85;;;;;;;17.89;67.92;100395.25;1056692;28;20553;-39
2023/07/01 02:29:08;;;;;;;5.07;1.98;;;;;;;17.73;69.70;100395.56;1053925;28;21293;-43
2023/07/01 02:29:40;;;;;;;3.25;1.50;;;;;;;17.72;69.38;100391.25;1053368;28;20040;-39
2023/07/01 02:30:11;;;;;;;5.95;1.65;;;;;;;17.80;68.95;100391.50;1056586;28;20040;-39
2023/07/01 02:30:43;;;;;;;4.35;1.38;;;;;;;17.82;69.03;100388.56;1056586;28;20464;-39
2023/07/01 02:31:18;;;;;;;2.72;2.10;;;;;;;17.80;68.74;100388.00;1057059;28;20051;-39
2023/07/01 02:31:50;;;;;;;8.63;1.85;;;;;;;17.86;68.48;100378.84;1056562;28;20038;-39
2023/07/01 02:32:21;;;;;;;5.30;1.20;;;;;;;17.85;68.12;100377.22;1056592;28;20047;-39
2023/07/01 02:32:53;;;;;;;4.78;1.42;;;;;;;17.83;68.81;100377.50;1056724;28;20061;-39
2023/07/01 02:33:25;;;;;;;4.00;1.75;;;;;;;17.82;68.36;100383.16;1052199;28;20040;-39
2023/07/01 02:34:03;;;;;;;2.90;1.45;;;;;;;17.82;68.18;100383.97;1052780;28;20173;-41
2023/07/01 02:34:34;;;;;;;4.35;2.13;;;;;;;17.78;68.96;100371.28;1056501;28;20165;-40
2023/07/01 02:35:06;;;;;;;3.03;1.45;;;;;;;17.73;69.50;100380.22;1056529;28;20237;-40